Eurocargo Venezia — IBKS — position and weather

sailwx.info

Track history (hours):
 
Tides and Currents Weather Stations Pressure Air Temp Water Temp Dewpoint Dewpoint Depression Visibility Wind Speed Wind Dir Waves Ship Positions

Eurocargo Venezia

Last reported at 2016-Sep-28 19:33 UTC. Time now 2016-Sep-28 20:33 UTC.
Position N 37°29' E 015°06'.

Length 200 m; draft 7.4 m.

Type: Cargo ship. MMSI: 247297200.

Date/timePositionNaut miles runAvg speedWind from/ knotsBaromVisibWave heightAir tempDewpointWater temp
2016-Sep-28 19:33N 37°29' E 015°06'31 2.8
2016-Sep-28 08:33N 37°55' E 015°27'37917.2
2016-Sep-27 10:34N 42°57' E 010°26'38 3.8
2016-Sep-27 00:33N 43°35' E 010°19'4110.2
2016-Sep-26 20:33N 43°54' E 009°29'2020.1
2016-Sep-26 19:33N 44°09' E 009°11'20 4.9
2016-Sep-26 15:28N 44°24' E 008°53'0 0.0
2016-Sep-26 13:31N 44°24' E 008°53'0 0.0
2016-Sep-26 11:31N 44°24' E 008°53'0 0.0
2016-Sep-26 08:31N 44°24' E 008°53'29 4.9
2016-Sep-26 02:33N 44°02' E 009°20'1818.3
2016-Sep-26 01:33N 43°48' E 009°36'1918.7
2016-Sep-26 00:33N 43°34' E 009°53'5818.2
2016-Sep-25 21:23N 42°46' E 010°36'31118.4
2016-Sep-25 04:32N 38°58' E 015°16'6616.7
2016-Sep-25 00:33N 37°52' E 015°26'99 8.0
2016-Sep-24 12:09N 36°16' E 014°52'2917.7
2016-Sep-24 10:31N 35°53' E 014°31'0 0.0
2016-Sep-24 09:27N 35°53' E 014°31'0 0.0
2016-Sep-24 03:33N 35°53' E 014°31'0 0.0
2016-Sep-24 02:33N 35°53' E 014°31'2 2.4
2016-Sep-24 01:33N 35°55' E 014°32'1919.0
2016-Sep-24 00:33N 36°10' E 014°46'130 8.7
2016-Sep-23 09:33N 38°14' E 015°37'38418.3
2016-Sep-22 12:33N 43°12' E 010°18'22 2.8
2016-Sep-22 04:31N 43°35' E 010°19'1 1.3
2016-Sep-22 03:33N 43°34' E 010°18'24 8.1
2016-Sep-22 00:34N 43°40' E 009°45'1918.6
2016-Sep-21 23:33N 43°54' E 009°29'1918.9
2016-Sep-21 22:34N 44°08' E 009°12'21 6.9
2016-Sep-21 19:33N 44°24' E 008°53'0 0.0
2016-Sep-21 16:33N 44°24' E 008°53'4 0.6
2016-Sep-21 09:33N 44°22' E 008°58'1918.7
2016-Sep-21 08:33N 44°07' E 009°15'5719.0
2016-Sep-21 05:33N 43°24' E 010°05'3819.1
2016-Sep-21 03:33N 42°51' E 010°32'32018.8
2016-Sep-20 10:31N 38°53' E 015°14'3819.2
2016-Sep-20 08:33N 38°22' E 015°41'1514.9
2016-Sep-20 07:33N 38°07' E 015°36'2020.2
2016-Sep-20 06:33N 37°49' E 015°25'113 8.0
2016-Sep-19 16:33N 36°02' E 014°40'12 3.9
2016-Sep-19 13:32N 35°53' E 014°31'0 0.0
2016-Sep-19 12:32N 35°53' E 014°31'0 0.0
2016-Sep-19 11:32N 35°53' E 014°31'0 0.0
2016-Sep-19 09:32N 35°53' E 014°31'0 0.0
2016-Sep-19 06:28N 35°53' E 014°31'9214.8
2016-Sep-19 00:16N 37°17' E 015°18'  
Track history (hours):
 
Tides and Currents Weather Stations Pressure Air Temp Water Temp Dewpoint Dewpoint Depression Visibility Wind Speed Wind Dir Waves Ship Positions

Eurocargo Venezia

Last reported at 2016-Sep-28 19:33 UTC. Time now 2016-Sep-28 20:33 UTC.
Position N 37°29' E 015°06'.

Length 200 m; draft 7.4 m.

Type: Cargo ship. MMSI: 247297200.

Date/timePositionNaut miles runAvg speedWind from/ knotsBaromVisibWave heightAir tempDewpointWater temp
2016-Sep-28 19:33N 37°29' E 015°06'31 2.8
2016-Sep-28 08:33N 37°55' E 015°27'37917.2
2016-Sep-27 10:34N 42°57' E 010°26'38 3.8
2016-Sep-27 00:33N 43°35' E 010°19'4110.2
2016-Sep-26 20:33N 43°54' E 009°29'2020.1
2016-Sep-26 19:33N 44°09' E 009°11'20 4.9
2016-Sep-26 15:28N 44°24' E 008°53'0 0.0
2016-Sep-26 13:31N 44°24' E 008°53'0 0.0
2016-Sep-26 11:31N 44°24' E 008°53'0 0.0
2016-Sep-26 08:31N 44°24' E 008°53'29 4.9
2016-Sep-26 02:33N 44°02' E 009°20'1818.3
2016-Sep-26 01:33N 43°48' E 009°36'1918.7
2016-Sep-26 00:33N 43°34' E 009°53'5818.2
2016-Sep-25 21:23N 42°46' E 010°36'31118.4
2016-Sep-25 04:32N 38°58' E 015°16'6616.7
2016-Sep-25 00:33N 37°52' E 015°26'99 8.0
2016-Sep-24 12:09N 36°16' E 014°52'2917.7
2016-Sep-24 10:31N 35°53' E 014°31'0 0.0
2016-Sep-24 09:27N 35°53' E 014°31'0 0.0
2016-Sep-24 03:33N 35°53' E 014°31'0 0.0
2016-Sep-24 02:33N 35°53' E 014°31'2 2.4
2016-Sep-24 01:33N 35°55' E 014°32'1919.0
2016-Sep-24 00:33N 36°10' E 014°46'130 8.7
2016-Sep-23 09:33N 38°14' E 015°37'38418.3
2016-Sep-22 12:33N 43°12' E 010°18'22 2.8
2016-Sep-22 04:31N 43°35' E 010°19'1 1.3
2016-Sep-22 03:33N 43°34' E 010°18'24 8.1
2016-Sep-22 00:34N 43°40' E 009°45'1918.6
2016-Sep-21 23:33N 43°54' E 009°29'1918.9
2016-Sep-21 22:34N 44°08' E 009°12'21 6.9
2016-Sep-21 19:33N 44°24' E 008°53'0 0.0
2016-Sep-21 16:33N 44°24' E 008°53'4 0.6
2016-Sep-21 09:33N 44°22' E 008°58'1918.7
2016-Sep-21 08:33N 44°07' E 009°15'5719.0
2016-Sep-21 05:33N 43°24' E 010°05'3819.1
2016-Sep-21 03:33N 42°51' E 010°32'32018.8
2016-Sep-20 10:31N 38°53' E 015°14'3819.2
2016-Sep-20 08:33N 38°22' E 015°41'1514.9
2016-Sep-20 07:33N 38°07' E 015°36'2020.2
2016-Sep-20 06:33N 37°49' E 015°25'113 8.0
2016-Sep-19 16:33N 36°02' E 014°40'12 3.9
2016-Sep-19 13:32N 35°53' E 014°31'0 0.0
2016-Sep-19 12:32N 35°53' E 014°31'0 0.0
2016-Sep-19 11:32N 35°53' E 014°31'0 0.0
2016-Sep-19 09:32N 35°53' E 014°31'0 0.0
2016-Sep-19 06:28N 35°53' E 014°31'9214.8
2016-Sep-19 00:16N 37°17' E 015°18'  

Dump ship's entire track history